Time,TemperatureF,DewpointF,PressureIn,WindDirection,WindDirectionDegrees,WindSpeedMPH,WindSpeedGustMPH,Humidity,HourlyPrecipIn,Conditions,Clouds,dailyrainin,SoftwareType,DateUTC
2013-08-27 00:00:00,76.4,71.0,29.91,West,271,0.0,0.0,84,0.00,,,0.00,weatherlink.com 1.10,2013-08-27 04:00:00,
2013-08-27 00:15:00,76.5,71.0,29.91,WSW,245,0.0,0.0,84,0.00,,,0.00,weatherlink.com 1.10,2013-08-27 04:15:00,
2013-08-27 00:30:00,76.5,71.0,29.91,WSW,256,0.0,0.0,84,0.00,,,0.00,weatherlink.com 1.10,2013-08-27 04:30:00,
2013-08-27 00:45:00,76.5,71.0,29.91,West,264,0.0,0.0,84,0.00,,,0.00,weatherlink.com 1.10,2013-08-27 04:45:00,
2013-08-27 01:00:00,76.5,71.0,29.91,West,277,0.0,0.0,84,0.00,,,0.00,weatherlink.com 1.10,2013-08-27 05:00:00,
2013-08-27 01:15:00,76.5,71.0,29.91,WNW,284,0.0,0.0,84,0.00,,,0.00,weatherlink.com 1.10,2013-08-27 05:15:00,
2013-08-27 01:30:00,76.6,72.0,29.90,West,260,0.0,0.0,84,0.00,,,0.00,weatherlink.com 1.10,2013-08-27 05:30:00,
2013-08-27 01:45:00,76.7,72.0,29.89,WSW,243,0.0,0.0,85,0.00,,,0.00,weatherlink.com 1.10,2013-08-27 05:45:00,
2013-08-27 02:00:00,76.8,72.0,29.89,West,269,0.0,0.0,84,0.00,,,0.00,weatherlink.com 1.10,2013-08-27 06:00:00,
2013-08-27 02:15:00,76.8,72.0,29.89,West,278,0.0,0.0,84,0.00,,,0.00,weatherlink.com 1.10,2013-08-27 06:15:00,
2013-08-27 02:30:00,76.9,72.0,29.89,West,264,0.0,0.0,84,0.00,,,0.00,weatherlink.com 1.10,2013-08-27 06:30:00,
2013-08-27 02:45:00,76.9,72.0,29.89,West,276,0.0,0.0,84,0.00,,,0.00,weatherlink.com 1.10,2013-08-27 06:45:00,
2013-08-27 03:00:00,77.0,72.0,29.89,West,280,0.0,0.0,84,0.00,,,0.00,weatherlink.com 1.10,2013-08-27 07:00:00,
2013-08-27 03:15:00,77.0,72.0,29.89,West,281,0.0,2.0,84,0.00,,,0.00,weatherlink.com 1.10,2013-08-27 07:15:00,
2013-08-27 03:30:00,77.2,72.0,29.89,West,276,1.0,2.0,84,0.00,,,0.00,weatherlink.com 1.10,2013-08-27 07:30:00,
2013-08-27 03:45:00,77.1,72.0,29.88,West,277,0.0,0.0,84,0.00,,,0.00,weatherlink.com 1.10,2013-08-27 07:45:00,
2013-08-27 04:00:00,77.0,72.0,29.87,West,281,0.0,0.0,84,0.00,,,0.00,weatherlink.com 1.10,2013-08-27 08:00:00,
2013-08-27 04:15:00,76.8,72.0,29.88,West,266,0.0,0.0,85,0.00,,,0.00,weatherlink.com 1.10,2013-08-27 08:15:00,
2013-08-27 04:30:00,76.9,72.0,29.88,West,273,0.0,0.0,85,0.00,,,0.00,weatherlink.com 1.10,2013-08-27 08:30:00,
2013-08-27 04:45:00,76.9,72.0,29.88,West,280,0.0,0.0,85,0.00,,,0.00,weatherlink.com 1.10,2013-08-27 08:45:00,
2013-08-27 05:00:00,77.0,72.0,29.88,WNW,283,0.0,0.0,85,0.00,,,0.00,weatherlink.com 1.10,2013-08-27 09:00:00,
2013-08-27 05:15:00,76.7,73.0,29.89,NW,309,2.0,5.0,87,0.03,,,0.03,weatherlink.com 1.10,2013-08-27 09:15:00,
2013-08-27 05:30:00,74.9,73.0,29.91,WNW,302,1.0,2.0,93,0.04,,,0.04,weatherlink.com 1.10,2013-08-27 09:30:00,
2013-08-27 05:45:00,74.4,73.0,29.92,SE,126,0.0,0.0,94,0.06,,,0.06,weatherlink.com 1.10,2013-08-27 09:45:00,
2013-08-27 06:01:00,74.3,73.0,29.93,NW,312,0.0,0.0,95,0.07,,,0.07,weatherlink.com 1.10,2013-08-27 10:01:00,
2013-08-27 06:16:00,74.2,73.0,29.93,West,277,0.0,0.0,95,0.06,,,0.09,weatherlink.com 1.10,2013-08-27 10:16:00,
2013-08-27 06:31:00,73.8,72.0,29.92,SSE,147,0.0,5.0,95,0.35,,,0.39,weatherlink.com 1.10,2013-08-27 10:31:00,
2013-08-27 06:46:00,73.1,72.0,29.91,SSE,148,0.0,0.0,96,0.34,,,0.40,weatherlink.com 1.10,2013-08-27 10:46:00,
2013-08-27 07:01:00,72.7,72.0,29.91,SSE,151,0.0,0.0,96,0.35,,,0.42,weatherlink.com 1.10,2013-08-27 11:01:00,
2013-08-27 07:16:00,72.5,71.0,29.92,SE,143,0.0,1.0,96,0.34,,,0.43,weatherlink.com 1.10,2013-08-27 11:16:00,
2013-08-27 07:31:00,72.2,71.0,29.93,SE,142,0.0,0.0,96,0.05,,,0.44,weatherlink.com 1.10,2013-08-27 11:31:00,
2013-08-27 07:46:00,72.1,71.0,29.91,SE,142,0.0,0.0,97,0.04,,,0.44,weatherlink.com 1.10,2013-08-27 11:46:00,
2013-08-27 08:01:00,72.1,71.0,29.91,SE,141,0.0,0.0,97,0.02,,,0.44,weatherlink.com 1.10,2013-08-27 12:01:00,
2013-08-27 08:16:00,72.1,71.0,29.91,South,190,0.0,0.0,97,0.01,,,0.44,weatherlink.com 1.10,2013-08-27 12:16:00,
2013-08-27 08:31:00,72.2,71.0,29.91,South,188,0.0,0.0,97,0.00,,,0.44,weatherlink.com 1.10,2013-08-27 12:31:00,
2013-08-27 08:46:00,72.3,71.0,29.90,South,188,0.0,0.0,97,0.00,,,0.44,weatherlink.com 1.10,2013-08-27 12:46:00,
2013-08-27 09:01:00,72.4,72.0,29.90,South,188,0.0,0.0,97,0.00,,,0.44,weatherlink.com 1.10,2013-08-27 13:01:00,
2013-08-27 09:16:00,72.7,72.0,29.89,South,188,0.0,0.0,98,0.00,,,0.44,weatherlink.com 1.10,2013-08-27 13:16:00,
2013-08-27 09:31:00,73.1,73.0,29.88,SSW,207,0.0,0.0,98,0.00,,,0.44,weatherlink.com 1.10,2013-08-27 13:31:00,
2013-08-27 09:46:00,73.5,73.0,29.88,SSW,205,0.0,0.0,98,0.00,,,0.44,weatherlink.com 1.10,2013-08-27 13:46:00,
2013-08-27 10:01:00,74.4,74.0,29.89,SSW,205,0.0,0.0,98,0.00,,,0.44,weatherlink.com 1.10,2013-08-27 14:01:00,
2013-08-27 10:16:00,75.0,74.0,29.88,NE,44,0.0,2.0,98,0.00,,,0.44,weatherlink.com 1.10,2013-08-27 14:16:00,
2013-08-27 10:31:00,75.3,74.0,29.88,NE,44,0.0,0.0,97,0.00,,,0.44,weatherlink.com 1.10,2013-08-27 14:31:00,
2013-08-27 10:46:00,75.5,75.0,29.88,ENE,57,0.0,2.0,97,0.00,,,0.44,weatherlink.com 1.10,2013-08-27 14:46:00,
2013-08-27 11:01:00,76.2,75.0,29.88,NE,53,0.0,0.0,97,0.00,,,0.44,weatherlink.com 1.10,2013-08-27 15:01:00,
2013-08-27 11:16:00,76.7,76.0,29.87,NE,50,0.0,0.0,97,0.00,,,0.44,weatherlink.com 1.10,2013-08-27 15:16:00,
2013-08-27 11:31:00,77.3,76.0,29.87,ESE,109,0.0,0.0,96,0.00,,,0.44,weatherlink.com 1.10,2013-08-27 15:31:00,
2013-08-27 11:46:00,78.1,77.0,29.87,WNW,291,0.0,0.0,95,0.00,,,0.44,weatherlink.com 1.10,2013-08-27 15:46:00,
2013-08-27 12:01:00,79.0,76.0,29.86,SSE,150,0.0,0.0,90,0.00,,,0.44,weatherlink.com 1.10,2013-08-27 16:01:00,
2013-08-27 12:16:00,79.0,76.0,29.86,NNW,345,0.0,0.0,90,0.00,,,0.44,weatherlink.com 1.10,2013-08-27 16:16:00,
2013-08-27 12:31:00,79.6,76.0,29.86,WNW,290,0.0,0.0,89,0.00,,,0.44,weatherlink.com 1.10,2013-08-27 16:31:00,
2013-08-27 12:46:00,80.2,76.0,29.86,WNW,284,0.0,0.0,88,0.00,,,0.44,weatherlink.com 1.10,2013-08-27 16:46:00,
2013-08-27 13:01:00,81.3,77.0,29.85,WSW,241,0.0,0.0,87,0.00,,,0.44,weatherlink.com 1.10,2013-08-27 17:01:00,
2013-08-27 13:16:00,80.9,77.0,29.85,WNW,284,0.0,0.0,87,0.00,,,0.44,weatherlink.com 1.10,2013-08-27 17:16:00,
2013-08-27 13:31:00,80.9,77.0,29.84,ESE,120,0.0,0.0,88,0.00,,,0.44,weatherlink.com 1.10,2013-08-27 17:31:00,
2013-08-27 13:46:00,80.9,77.0,29.84,SW,217,0.0,0.0,88,0.00,,,0.44,weatherlink.com 1.10,2013-08-27 17:46:00,
2013-08-27 14:01:00,81.0,77.0,29.84,SW,221,0.0,0.0,86,0.00,,,0.44,weatherlink.com 1.10,2013-08-27 18:01:00,
2013-08-27 14:16:00,82.9,78.0,29.84,West,264,0.0,0.0,84,0.00,,,0.44,weatherlink.com 1.10,2013-08-27 18:16:00,
2013-08-27 14:31:00,83.6,77.0,29.83,WNW,298,0.0,0.0,81,0.00,,,0.44,weatherlink.com 1.10,2013-08-27 18:31:00,
2013-08-27 14:46:00,84.6,78.0,29.83,SE,124,0.0,1.0,81,0.00,,,0.44,weatherlink.com 1.10,2013-08-27 18:46:00,
2013-08-27 15:01:00,85.0,78.0,29.82,NW,306,0.0,3.0,79,0.00,,,0.44,weatherlink.com 1.10,2013-08-27 19:01:00,
2013-08-27 15:17:00,84.8,77.0,29.81,WNW,294,0.0,0.0,78,0.00,,,0.44,weatherlink.com 1.10,2013-08-27 19:17:00,
2013-08-27 15:32:00,85.3,77.0,29.80,WNW,288,0.0,0.0,77,0.00,,,0.44,weatherlink.com 1.10,2013-08-27 19:32:00,
2013-08-27 15:47:00,85.6,78.0,29.80,WSW,245,2.0,2.0,78,0.00,,,0.44,weatherlink.com 1.10,2013-08-27 19:47:00,
2013-08-27 16:02:00,86.0,77.0,29.79,West,259,0.0,3.0,75,0.00,,,0.44,weatherlink.com 1.10,2013-08-27 20:02:00,
2013-08-27 16:17:00,85.8,77.0,29.78,NW,322,1.0,3.0,75,0.00,,,0.44,weatherlink.com 1.10,2013-08-27 20:17:00,
2013-08-27 16:32:00,86.4,76.0,29.78,WNW,295,2.0,3.0,72,0.00,,,0.44,weatherlink.com 1.10,2013-08-27 20:32:00,
2013-08-27 16:47:00,86.3,75.0,29.77,WNW,285,0.0,3.0,70,0.00,,,0.44,weatherlink.com 1.10,2013-08-27 20:47:00,
2013-08-27 17:02:00,86.2,75.0,29.77,WSW,243,1.0,4.0,70,0.00,,,0.44,weatherlink.com 1.10,2013-08-27 21:02:00,
2013-08-27 17:32:00,85.4,72.0,29.77,WSW,252,0.0,3.0,65,0.00,,,0.44,weatherlink.com 1.10,2013-08-27 21:32:00,
2013-08-27 17:47:00,85.3,72.0,29.76,WNW,289,0.0,0.0,65,0.00,,,0.44,weatherlink.com 1.10,2013-08-27 21:47:00,
2013-08-27 18:02:00,85.0,72.0,29.77,West,266,0.0,0.0,65,0.00,,,0.44,weatherlink.com 1.10,2013-08-27 22:02:00,
2013-08-27 18:17:00,84.9,73.0,29.77,WSW,250,0.0,0.0,67,0.00,,,0.44,weatherlink.com 1.10,2013-08-27 22:17:00,
2013-08-27 18:32:00,84.8,73.0,29.77,SE,145,0.0,0.0,68,0.00,,,0.44,weatherlink.com 1.10,2013-08-27 22:32:00,
2013-08-27 18:47:00,84.9,72.0,29.76,WSW,246,0.0,0.0,65,0.00,,,0.44,weatherlink.com 1.10,2013-08-27 22:47:00,
2013-08-27 19:02:00,84.5,72.0,29.76,WNW,284,0.0,0.0,67,0.00,,,0.44,weatherlink.com 1.10,2013-08-27 23:02:00,
2013-08-27 19:17:00,84.4,72.0,29.75,WSW,255,0.0,0.0,67,0.00,,,0.44,weatherlink.com 1.10,2013-08-27 23:17:00,
2013-08-27 19:32:00,84.4,72.0,29.75,WNW,284,0.0,0.0,67,0.00,,,0.44,weatherlink.com 1.10,2013-08-27 23:32:00,
2013-08-27 19:47:00,84.5,71.0,29.75,West,281,0.0,0.0,65,0.00,,,0.44,weatherlink.com 1.10,2013-08-27 23:47:00,
2013-08-27 20:02:00,84.4,72.0,29.75,WSW,243,0.0,0.0,66,0.00,,,0.44,weatherlink.com 1.10,2013-08-28 00:02:00,
2013-08-27 20:17:00,84.4,71.0,29.74,WSW,243,0.0,0.0,65,0.00,,,0.44,weatherlink.com 1.10,2013-08-28 00:17:00,
2013-08-27 20:32:00,84.5,71.0,29.74,West,259,0.0,0.0,65,0.00,,,0.44,weatherlink.com 1.10,2013-08-28 00:32:00,
2013-08-27 20:47:00,83.9,71.0,29.74,WNW,295,0.0,0.0,66,0.00,,,0.44,weatherlink.com 1.10,2013-08-28 00:47:00,
2013-08-27 21:02:00,83.6,72.0,29.75,WSW,250,0.0,0.0,67,0.00,,,0.44,weatherlink.com 1.10,2013-08-28 01:02:00,
2013-08-27 21:17:00,83.2,72.0,29.75,WNW,285,0.0,0.0,68,0.00,,,0.44,weatherlink.com 1.10,2013-08-28 01:17:00,
2013-08-27 21:32:00,82.9,72.0,29.75,West,260,0.0,0.0,70,0.00,,,0.44,weatherlink.com 1.10,2013-08-28 01:32:00,
2013-08-27 21:47:00,82.7,72.0,29.74,West,276,0.0,0.0,71,0.00,,,0.44,weatherlink.com 1.10,2013-08-28 01:47:00,
2013-08-27 22:02:00,82.8,73.0,29.75,WNW,283,0.0,3.0,72,0.00,,,0.44,weatherlink.com 1.10,2013-08-28 02:02:00,
2013-08-27 22:17:00,81.7,73.0,29.76,WNW,285,0.0,2.0,75,0.00,,,0.44,weatherlink.com 1.10,2013-08-28 02:17:00,
2013-08-27 22:32:00,81.2,75.0,29.75,ESE,108,0.0,3.0,80,0.03,,,0.47,weatherlink.com 1.10,2013-08-28 02:32:00,
2013-08-27 22:47:00,79.0,75.0,29.75,NNW,339,0.0,2.0,87,0.05,,,0.49,weatherlink.com 1.10,2013-08-28 02:47:00,
2013-08-27 23:02:00,77.3,75.0,29.75,NNW,335,0.0,0.0,91,0.12,,,0.56,weatherlink.com 1.10,2013-08-28 03:02:00,
2013-08-27 23:17:00,76.7,75.0,29.73,NW,326,0.0,0.0,93,0.22,,,0.66,weatherlink.com 1.10,2013-08-28 03:17:00,
2013-08-27 23:32:00,76.3,75.0,29.74,NW,324,2.0,3.0,95,0.18,,,0.66,weatherlink.com 1.10,2013-08-28 03:32:00,
2013-08-27 23:47:00,76.1,75.0,29.76,SE,146,0.0,0.0,95,0.16,,,0.66,weatherlink.com 1.10,2013-08-28 03:47:00,